createdAt,value
2019-02-10T00:00:32.646Z,5.20
2019-02-10T00:03:36.543Z,5.30
2019-02-10T00:06:40.391Z,5.30
2019-02-10T00:09:44.296Z,5.30
2019-02-10T00:13:24.570Z,5.40
2019-02-10T00:16:28.419Z,5.30
2019-02-10T00:19:32.335Z,5.40
2019-02-10T00:22:36.209Z,5.40
2019-02-10T00:25:40.084Z,5.30
2019-02-10T00:28:43.963Z,5.40
2019-02-10T00:31:47.834Z,5.40
2019-02-10T00:34:51.714Z,5.60
2019-02-10T00:37:55.537Z,5.70
2019-02-10T00:41:00.040Z,5.60
2019-02-10T00:44:03.831Z,5.60
2019-02-10T00:47:07.742Z,5.60
2019-02-10T00:50:11.674Z,5.50
2019-02-10T00:53:15.503Z,5.40
2019-02-10T00:56:19.309Z,5.60
2019-02-10T00:59:23.485Z,5.50
2019-02-10T01:02:27.344Z,5.50
2019-02-10T01:05:31.219Z,5.40
2019-02-10T01:08:35.133Z,5.40
2019-02-10T01:11:39.916Z,5.40
2019-02-10T01:14:44.120Z,5.40
2019-02-10T01:17:47.960Z,5.20
2019-02-10T01:20:51.854Z,5.10
2019-02-10T01:23:55.697Z,5.10
2019-02-10T01:26:59.584Z,5.20
2019-02-10T01:30:03.974Z,5.10
2019-02-10T01:33:07.805Z,5.10
2019-02-10T01:36:12.865Z,5.10
2019-02-10T01:39:17.424Z,5.20
2019-02-10T01:42:21.369Z,5.10
2019-02-10T01:45:25.235Z,5.10
2019-02-10T01:48:29.078Z,5.10
2019-02-10T01:51:32.956Z,5.10
2019-02-10T01:54:36.879Z,5.00
2019-02-10T01:57:40.737Z,5.10
2019-02-10T02:00:44.679Z,5.10
2019-02-10T02:03:48.538Z,5.30
2019-02-10T02:06:57.662Z,5.30
2019-02-10T02:09:57.948Z,5.10
2019-02-10T02:13:01.796Z,5.20
2019-02-10T02:16:05.761Z,5.20
2019-02-10T02:19:10.355Z,5.20
2019-02-10T02:22:14.500Z,5.20
2019-02-10T02:25:18.357Z,5.10
2019-02-10T02:28:22.240Z,5.10
2019-02-10T02:31:26.142Z,5.10
2019-02-10T02:34:30.020Z,4.90
2019-02-10T02:37:33.911Z,4.90
2019-02-10T02:40:37.774Z,4.80
2019-02-10T02:43:42.369Z,4.90
2019-02-10T02:46:46.587Z,4.90
2019-02-10T02:49:50.472Z,4.80
2019-02-10T02:52:54.292Z,4.80
2019-02-10T02:55:58.199Z,4.90
2019-02-10T02:59:03.187Z,4.80
2019-02-10T03:02:06.983Z,4.90
2019-02-10T03:05:11.275Z,4.90
2019-02-10T03:08:15.136Z,4.90
2019-02-10T03:11:19.017Z,4.90
2019-02-10T03:14:22.961Z,4.70
2019-02-10T03:17:26.803Z,4.60
2019-02-10T03:20:32.269Z,4.50
2019-02-10T03:23:36.099Z,4.40
2019-02-10T03:26:40.039Z,4.40
2019-02-10T03:29:43.889Z,4.40
2019-02-10T03:32:47.819Z,4.30
2019-02-10T03:35:52.274Z,4.20
2019-02-10T03:38:56.196Z,4.00
2019-02-10T03:42:00.099Z,3.70
2019-02-10T03:45:05.467Z,3.60
2019-02-10T03:48:09.378Z,3.60
2019-02-10T03:51:13.467Z,3.70
2019-02-10T03:54:17.481Z,3.60
2019-02-10T03:57:21.329Z,3.50
2019-02-10T04:00:25.206Z,3.40
2019-02-10T04:03:29.126Z,3.40
2019-02-10T04:06:32.957Z,3.30
2019-02-10T04:09:36.888Z,3.50
2019-02-10T04:12:40.722Z,3.40
2019-02-10T04:15:44.605Z,3.60
2019-02-10T04:18:48.435Z,3.60
2019-02-10T04:21:52.297Z,3.80
2019-02-10T04:24:56.212Z,3.80
2019-02-10T04:28:00.074Z,3.90
2019-02-10T04:31:03.974Z,4.00
2019-02-10T04:34:07.810Z,4.00
2019-02-10T04:37:11.688Z,3.80
2019-02-10T04:40:15.530Z,4.00
2019-02-10T04:43:19.389Z,4.40
2019-02-10T04:46:23.320Z,4.40
2019-02-10T04:49:27.159Z,4.20
2019-02-10T04:52:31.044Z,4.10
2019-02-10T04:55:34.923Z,3.90
2019-02-10T04:58:38.834Z,3.90
2019-02-10T05:01:42.678Z,3.80
2019-02-10T05:04:46.568Z,3.70
2019-02-10T05:07:54.391Z,3.70
2019-02-10T05:10:55.964Z,3.60
2019-02-10T05:13:59.908Z,3.50
2019-02-10T05:17:03.814Z,3.50
2019-02-10T05:20:08.508Z,3.80
2019-02-10T05:23:12.434Z,3.60
2019-02-10T05:26:16.323Z,3.70
2019-02-10T05:29:20.171Z,3.80
2019-02-10T05:32:24.034Z,3.80
2019-02-10T05:35:27.933Z,3.80
2019-02-10T05:38:31.806Z,4.00
2019-02-10T05:41:35.674Z,3.90
2019-02-10T05:44:40.741Z,3.80
2019-02-10T05:47:44.590Z,3.80
2019-02-10T05:50:48.485Z,3.70
2019-02-10T05:53:52.323Z,3.50
2019-02-10T05:56:56.254Z,3.50
2019-02-10T06:00:00.241Z,3.50
2019-02-10T06:03:05.895Z,3.40
2019-02-10T06:06:09.751Z,3.40
2019-02-10T06:09:13.641Z,3.40
2019-02-10T06:12:18.104Z,3.60
2019-02-10T06:15:22.009Z,3.60
2019-02-10T06:18:25.874Z,3.70
2019-02-10T06:21:29.703Z,3.80
2019-02-10T06:24:33.655Z,3.80
2019-02-10T06:27:37.583Z,3.70
2019-02-10T06:30:41.914Z,3.70
2019-02-10T06:33:45.811Z,3.60
2019-02-10T06:36:50.699Z,3.60
2019-02-10T06:39:54.590Z,3.70
2019-02-10T06:42:58.465Z,3.90
2019-02-10T06:46:02.321Z,4.00
2019-02-10T06:49:06.219Z,4.30
2019-02-10T06:52:10.109Z,5.10
2019-02-10T06:55:13.970Z,6.20
2019-02-10T06:58:17.967Z,7.40
2019-02-10T07:01:25.822Z,8.50
2019-02-10T07:04:29.709Z,9.50
2019-02-10T07:07:33.590Z,10.40
2019-02-10T07:10:37.474Z,10.90
2019-02-10T07:13:44.172Z,12.80
2019-02-10T07:16:50.949Z,13.50
2019-02-10T07:20:30.768Z,12.80
2019-02-10T07:23:58.230Z,13.50
2019-02-10T07:27:07.476Z,15.70
2019-02-10T07:30:14.303Z,14.40
2019-02-10T07:33:42.179Z,15.20
2019-02-10T07:37:04.199Z,16.90
2019-02-10T07:40:36.854Z,16.60
2019-02-10T07:44:03.138Z,16.20
2019-02-10T07:47:15.764Z,14.20
2019-02-10T07:50:40.751Z,12.40
2019-02-10T07:53:56.104Z,11.70
2019-02-10T07:57:02.930Z,12.90
2019-02-10T08:00:29.455Z,12.00
2019-02-10T08:03:36.346Z,11.90
2019-02-10T08:06:49.084Z,11.00
2019-02-10T08:09:58.617Z,10.30
2019-02-10T08:13:26.508Z,9.90
2019-02-10T08:16:45.196Z,9.60
2019-02-10T08:20:14.561Z,9.70
2019-02-10T08:23:30.126Z,9.80
2019-02-10T08:26:45.951Z,9.90
2019-02-10T08:30:09.205Z,10.00
2019-02-10T08:33:34.010Z,9.80
2019-02-10T08:36:40.870Z,9.60
2019-02-10T08:39:56.761Z,9.70
2019-02-10T08:43:03.576Z,9.60
2019-02-10T08:46:28.530Z,9.60
2019-02-10T08:49:44.187Z,9.70
2019-02-10T08:52:52.161Z,9.70
2019-02-10T08:55:56.159Z,9.80
2019-02-10T08:59:00.051Z,9.80
2019-02-10T09:02:03.940Z,9.90
2019-02-10T09:05:08.458Z,9.90
2019-02-10T09:08:12.339Z,10.10
2019-02-10T09:11:16.201Z,10.20
2019-02-10T09:14:20.113Z,10.20
2019-02-10T09:17:23.990Z,10.40
2019-02-10T09:20:27.933Z,10.50
2019-02-10T09:23:31.880Z,10.80
2019-02-10T09:26:35.749Z,11.10
2019-02-10T09:29:39.605Z,11.40
2019-02-10T09:32:43.630Z,11.50
2019-02-10T09:35:47.533Z,11.30
2019-02-10T09:38:51.434Z,12.30
2019-02-10T09:41:55.348Z,12.50
2019-02-10T09:44:59.227Z,12.50
2019-02-10T09:48:04.502Z,12.80
2019-02-10T09:51:08.628Z,13.10
2019-02-10T09:54:12.514Z,12.80
2019-02-10T09:57:16.825Z,12.90
2019-02-10T10:00:20.663Z,12.60
2019-02-10T10:03:24.584Z,12.30
2019-02-10T10:06:31.313Z,12.60
2019-02-10T10:09:35.207Z,13.50
2019-02-10T10:12:39.075Z,14.30
2019-02-10T10:15:42.974Z,15.70
2019-02-10T10:18:46.851Z,16.90
2019-02-10T10:21:50.691Z,17.10
2019-02-10T10:24:54.575Z,17.80
2019-02-10T10:27:58.448Z,16.90
2019-02-10T10:31:02.348Z,17.40
2019-02-10T10:34:06.178Z,17.50
2019-02-10T10:37:10.080Z,17.90
2019-02-10T10:40:14.056Z,17.90
2019-02-10T10:43:17.866Z,18.40
2019-02-10T10:46:21.741Z,18.30
2019-02-10T10:49:25.609Z,18.90
2019-02-10T10:52:29.519Z,18.40
2019-02-10T10:55:33.371Z,18.70
2019-02-10T10:58:37.267Z,19.00
2019-02-10T11:01:41.097Z,18.50
2019-02-10T11:04:45.114Z,18.80
2019-02-10T11:07:49.114Z,18.90
2019-02-10T11:10:53.020Z,17.50
2019-02-10T11:13:56.890Z,15.30
2019-02-10T11:17:00.733Z,14.30
2019-02-10T11:20:06.524Z,13.80
2019-02-10T11:23:10.481Z,13.70
2019-02-10T11:26:14.347Z,13.70
2019-02-10T11:29:18.227Z,13.80
2019-02-10T11:32:22.070Z,13.60
2019-02-10T11:35:25.971Z,13.70
2019-02-10T11:38:29.991Z,13.90
2019-02-10T11:41:33.863Z,13.70
2019-02-10T11:44:37.758Z,13.60
2019-02-10T11:47:41.664Z,13.40
2019-02-10T11:50:45.538Z,13.30
2019-02-10T11:53:51.836Z,13.30
2019-02-10T11:56:55.830Z,13.10
2019-02-10T11:59:59.752Z,13.00
2019-02-10T12:03:03.595Z,13.00
2019-02-10T12:06:07.469Z,12.90
2019-02-10T12:09:11.392Z,12.90
2019-02-10T12:12:15.217Z,12.70
2019-02-10T12:15:19.114Z,12.60
2019-02-10T12:18:22.941Z,12.30
2019-02-10T12:21:26.834Z,12.30
2019-02-10T12:24:30.882Z,12.20
2019-02-10T12:27:34.775Z,12.00
2019-02-10T12:30:38.684Z,12.00
2019-02-10T12:33:42.510Z,11.90
2019-02-10T12:36:46.371Z,11.90
2019-02-10T12:39:50.270Z,12.00
2019-02-10T12:42:54.115Z,12.10
2019-02-10T12:45:58.127Z,12.20
2019-02-10T12:49:02.063Z,12.30
2019-02-10T12:52:06.216Z,12.10
2019-02-10T12:55:12.091Z,12.00
2019-02-10T12:58:16.010Z,11.90
2019-02-10T13:01:19.930Z,11.80
2019-02-10T13:04:23.993Z,11.70
2019-02-10T13:07:27.956Z,11.60
2019-02-10T13:10:32.304Z,11.60
2019-02-10T13:13:36.183Z,11.60
2019-02-10T13:16:40.087Z,11.50
2019-02-10T13:19:44.066Z,11.50
2019-02-10T13:22:47.974Z,11.50
2019-02-10T13:25:51.954Z,11.40
2019-02-10T13:28:55.829Z,11.50
2019-02-10T13:31:59.745Z,11.60
2019-02-10T13:35:03.695Z,11.60
2019-02-10T13:38:07.578Z,11.80
2019-02-10T13:41:11.487Z,11.80
2019-02-10T13:44:15.371Z,11.70
2019-02-10T13:47:19.799Z,11.60
2019-02-10T13:50:23.720Z,11.40
2019-02-10T13:53:27.704Z,11.30
2019-02-10T13:56:31.574Z,11.20
2019-02-10T13:59:35.485Z,11.20
2019-02-10T14:02:39.317Z,11.10
2019-02-10T14:05:43.256Z,11.00
2019-02-10T14:08:47.219Z,11.00
2019-02-10T14:11:51.831Z,10.90
2019-02-10T14:14:55.874Z,10.90
2019-02-10T14:18:12.265Z,10.80
2019-02-10T14:21:17.557Z,10.70
2019-02-10T14:24:21.412Z,10.60
2019-02-10T14:27:25.527Z,10.50
2019-02-10T14:30:29.415Z,10.50
2019-02-10T14:33:38.749Z,10.20
2019-02-10T14:36:38.739Z,10.10
2019-02-10T14:39:42.599Z,10.00
2019-02-10T14:42:46.475Z,9.80
2019-02-10T14:46:03.316Z,9.70
2019-02-10T14:49:07.561Z,9.70
2019-02-10T14:52:11.430Z,9.50
2019-02-10T14:55:15.814Z,9.50
2019-02-10T14:58:19.729Z,9.30
2019-02-10T15:01:23.584Z,8.90
2019-02-10T15:04:27.414Z,8.80
2019-02-10T15:07:31.311Z,8.90
2019-02-10T15:10:41.790Z,8.80
2019-02-10T15:13:41.879Z,8.60
2019-02-10T15:16:45.789Z,8.50
2019-02-10T15:19:49.645Z,8.20
2019-02-10T15:22:53.735Z,7.90
2019-02-10T15:25:57.597Z,8.00
2019-02-10T15:29:01.690Z,7.90
2019-02-10T15:32:05.604Z,7.90
2019-02-10T15:35:11.729Z,7.90
2019-02-10T15:38:15.885Z,7.90
2019-02-10T15:41:20.088Z,7.80
2019-02-10T15:44:23.963Z,7.60
2019-02-10T15:47:27.829Z,7.40
2019-02-10T15:50:31.744Z,7.30
2019-02-10T15:53:35.597Z,7.30
2019-02-10T15:56:39.451Z,7.10
2019-02-10T15:59:43.369Z,7.10
2019-02-10T16:02:47.233Z,7.00
2019-02-10T16:05:51.079Z,6.60
2019-02-10T16:08:54.969Z,6.50
2019-02-10T16:11:58.827Z,6.40
2019-02-10T16:15:04.429Z,6.60
2019-02-10T16:18:08.296Z,6.80
2019-02-10T16:21:12.132Z,7.00
2019-02-10T16:24:15.993Z,7.10
2019-02-10T16:27:19.849Z,7.20
2019-02-10T16:30:24.121Z,7.10
2019-02-10T16:33:28.022Z,6.70
2019-02-10T16:36:31.959Z,6.50
2019-02-10T16:39:35.819Z,6.40
2019-02-10T16:42:39.825Z,6.60
2019-02-10T16:45:43.694Z,6.80
2019-02-10T16:48:47.945Z,6.70
2019-02-10T16:51:53.593Z,6.50
2019-02-10T16:55:00.039Z,6.40
2019-02-10T16:58:03.923Z,6.50
2019-02-10T17:01:07.966Z,6.50
2019-02-10T17:04:11.843Z,6.30
2019-02-10T17:07:15.754Z,6.20
2019-02-10T17:10:21.445Z,5.90
2019-02-10T17:13:26.234Z,5.70
2019-02-10T17:16:30.321Z,5.50
2019-02-10T17:19:34.256Z,5.40
2019-02-10T17:22:38.242Z,5.50
2019-02-10T17:25:42.219Z,5.50
2019-02-10T17:28:46.151Z,5.40
2019-02-10T17:31:50.119Z,5.40
2019-02-10T17:34:54.012Z,5.40
2019-02-10T17:37:57.940Z,5.40
2019-02-10T17:41:04.781Z,5.30
2019-02-10T17:44:08.669Z,5.10
2019-02-10T17:47:12.549Z,5.00
2019-02-10T17:50:16.559Z,5.00
2019-02-10T17:56:55.450Z,5.00
2019-02-10T17:59:59.307Z,5.00
2019-02-10T18:03:03.280Z,4.80
2019-02-10T18:06:07.085Z,4.90
2019-02-10T18:09:10.948Z,4.80
2019-02-10T18:12:14.986Z,4.80
2019-02-10T18:15:23.390Z,4.70
2019-02-10T18:18:28.832Z,5.00
2019-02-10T18:21:34.510Z,5.30
2019-02-10T18:24:40.022Z,5.20
2019-02-10T18:27:45.454Z,5.10
2019-02-10T18:30:54.412Z,4.90
2019-02-10T18:34:09.128Z,4.80
2019-02-10T18:37:17.569Z,4.70
2019-02-10T18:40:24.341Z,4.80
2019-02-10T18:43:29.810Z,4.80
2019-02-10T18:46:44.379Z,4.70
2019-02-10T18:49:50.015Z,4.70
2019-02-10T18:52:55.489Z,4.80
2019-02-10T18:56:13.201Z,4.80
2019-02-10T18:59:28.444Z,4.70
2019-02-10T19:02:36.833Z,4.60
2019-02-10T19:05:42.297Z,4.40
2019-02-10T19:09:03.863Z,4.20
2019-02-10T19:12:08.252Z,4.00
2019-02-10T19:15:16.563Z,4.10
2019-02-10T19:18:27.702Z,4.00
2019-02-10T19:21:36.002Z,4.20
2019-02-10T19:24:41.476Z,4.10
2019-02-10T19:27:58.948Z,4.30
2019-02-10T19:31:19.745Z,4.40
2019-02-10T19:34:41.789Z,4.40
2019-02-10T19:37:50.278Z,4.50
2019-02-10T19:40:58.698Z,4.90
2019-02-10T19:44:13.392Z,5.50
2019-02-10T19:47:18.926Z,5.70
2019-02-10T19:50:33.176Z,5.70
2019-02-10T19:53:41.156Z,5.70
2019-02-10T19:56:49.651Z,6.00
2019-02-10T19:59:57.990Z,6.00
2019-02-10T20:03:06.383Z,6.10
2019-02-10T20:06:28.139Z,6.00
2019-02-10T20:09:42.782Z,6.00
2019-02-10T20:12:48.238Z,5.80
2019-02-10T20:15:56.660Z,5.40
2019-02-10T20:19:17.029Z,5.10
2019-02-10T20:22:25.252Z,4.70
2019-02-10T20:25:46.165Z,4.40
2019-02-10T20:29:00.555Z,4.40
2019-02-10T20:32:05.997Z,4.30
2019-02-10T20:35:11.418Z,4.20
2019-02-10T20:38:16.842Z,4.00
2019-02-10T20:41:28.508Z,3.80
2019-02-10T20:44:39.932Z,3.70
2019-02-10T20:47:54.753Z,4.00
2019-02-10T20:51:16.599Z,4.10
2019-02-10T20:54:40.249Z,4.10
2019-02-10T20:57:51.764Z,4.00
2019-02-10T21:00:57.414Z,4.50
2019-02-10T21:04:05.626Z,4.70
2019-02-10T21:07:13.832Z,4.60
2019-02-10T21:10:21.999Z,4.60
2019-02-10T21:13:43.389Z,4.50
2019-02-10T21:17:00.564Z,4.30
2019-02-10T21:20:07.281Z,4.30
2019-02-10T21:23:12.717Z,4.30
2019-02-10T21:26:18.139Z,4.30
2019-02-10T21:29:39.943Z,4.30
2019-02-10T21:33:02.719Z,4.30
2019-02-10T21:36:08.176Z,4.50
2019-02-10T21:39:16.342Z,4.60
2019-02-10T21:42:29.075Z,4.40
2019-02-10T21:45:31.643Z,4.40
2019-02-10T21:48:36.944Z,4.40
2019-02-10T21:51:40.868Z,4.30
2019-02-10T21:54:45.765Z,4.40
2019-02-10T21:57:49.589Z,4.40
2019-02-10T22:00:53.470Z,4.50
2019-02-10T22:03:57.259Z,4.60
2019-02-10T22:07:01.196Z,4.70
2019-02-10T22:10:10.618Z,4.80
2019-02-10T22:13:14.484Z,4.90
2019-02-10T22:16:18.396Z,4.90
2019-02-10T22:19:22.231Z,5.00
2019-02-10T22:22:26.096Z,5.20
2019-02-10T22:25:29.952Z,5.30
2019-02-10T22:28:33.792Z,5.60
2019-02-10T22:31:37.673Z,6.00
2019-02-10T22:34:41.531Z,6.20
2019-02-10T22:37:45.400Z,6.40
2019-02-10T22:40:49.246Z,6.70
2019-02-10T22:43:53.111Z,6.80
2019-02-10T22:46:58.461Z,6.80
2019-02-10T22:50:02.899Z,6.80
2019-02-10T22:53:06.781Z,7.10
2019-02-10T22:56:10.640Z,7.40
2019-02-10T22:59:14.530Z,7.50
2019-02-10T23:02:18.419Z,7.50
2019-02-10T23:05:22.290Z,7.50
2019-02-10T23:08:26.198Z,7.50
2019-02-10T23:11:30.029Z,7.50
2019-02-10T23:14:33.914Z,7.50
2019-02-10T23:17:37.749Z,7.50
2019-02-10T23:20:41.613Z,7.50
2019-02-10T23:23:45.540Z,7.30
2019-02-10T23:26:49.370Z,7.10
2019-02-10T23:29:53.250Z,7.10
2019-02-10T23:32:57.116Z,7.00
2019-02-10T23:36:00.960Z,7.10
2019-02-10T23:39:06.539Z,7.30
2019-02-10T23:42:10.370Z,7.20
2019-02-10T23:45:14.251Z,7.00
2019-02-10T23:48:18.099Z,6.90
2019-02-10T23:51:21.969Z,6.80
2019-02-10T23:54:25.802Z,6.60
2019-02-10T23:57:29.633Z,6.60
